Time;durP1;ratioP1;P1;durP2;ratioP2;P2;SDS_P1;SDS_P2;PMS_P1;PMS_P2;Temp;Humidity;BMP_temperature;BMP_pressure;BME280_temperature;BME280_humidity;BME280_pressure;Samples;Min_cycle;Max_cycle;Signal;HPM_P1;HPM_P2
2023/08/14 00:01:58;;;;;;;6.72;1.30;;;;;;;18.29;64.27;99942.03;10458236;28;20136;-60
2023/08/14 00:07:00;;;;;;;3.25;1.10;;;;;;;18.29;64.52;99943.84;10475357;28;20123;-60
2023/08/14 00:12:02;;;;;;;4.40;1.35;;;;;;;18.34;64.54;99944.28;10475387;28;20051;-59
2023/08/14 00:17:04;;;;;;;3.53;1.10;;;;;;;18.34;64.62;99941.63;10475136;28;20323;-60
2023/08/14 00:22:06;;;;;;;3.20;1.30;;;;;;;18.36;64.41;99939.69;10480537;28;20053;-59
2023/08/14 00:27:08;;;;;;;2.13;1.35;;;;;;;18.38;64.86;99940.38;10465238;28;20078;-59
2023/08/14 00:32:10;;;;;;;2.38;1.20;;;;;;;18.33;64.58;99946.09;10483205;28;20079;-59
2023/08/14 00:37:12;;;;;;;2.42;1.17;;;;;;;18.45;64.88;99944.94;10481431;28;20355;-60
2023/08/14 00:42:14;;;;;;;2.15;1.02;;;;;;;18.35;64.79;99938.00;10481865;28;20052;-60
2023/08/14 00:47:17;;;;;;;2.40;1.20;;;;;;;18.37;64.89;99933.38;10481647;28;20428;-60
2023/08/14 00:52:19;;;;;;;6.40;1.35;;;;;;;18.43;64.66;99928.38;10481819;28;20080;-60
2023/08/14 00:57:21;;;;;;;3.28;1.70;;;;;;;18.44;64.37;99930.03;10463803;28;20169;-60
2023/08/14 01:02:24;;;;;;;2.63;1.13;;;;;;;18.36;64.66;99935.19;10463533;28;20136;-60
2023/08/14 01:07:29;;;;;;;1.52;0.98;;;;;;;18.25;64.68;99935.34;10463855;28;20052;-60
2023/08/14 01:12:42;;;;;;;5.72;1.55;;;;;;;18.19;64.98;99935.03;10481731;28;20048;-60
2023/08/14 01:17:52;;;;;;;1.75;1.00;;;;;;;18.13;65.10;99925.00;10481897;28;20145;-60
2023/08/14 01:23:03;;;;;;;3.60;1.30;;;;;;;17.81;65.28;99926.09;10480382;28;20071;-60
2023/08/14 01:28:08;;;;;;;1.63;1.10;;;;;;;17.69;65.65;99923.72;10462344;28;20036;-60
2023/08/14 01:33:11;;;;;;;1.73;1.13;;;;;;;17.73;65.58;99928.59;10479353;28;20522;-59
2023/08/14 01:38:50;;;;;;;2.40;1.20;;;;;;;17.53;66.00;99913.66;10462344;28;20509;-59
2023/08/14 01:43:57;;;;;;;1.98;1.00;;;;;;;17.52;65.71;99924.38;10461233;28;20068;-59
2023/08/14 01:49:01;;;;;;;1.60;1.00;;;;;;;17.52;65.65;99917.31;10481219;28;20036;-60
2023/08/14 01:54:04;;;;;;;1.30;1.00;;;;;;;17.46;65.88;99915.19;10461661;28;20086;-61
2023/08/14 01:59:06;;;;;;;2.35;1.30;;;;;;;17.36;66.00;99919.63;10462029;28;20123;-58
2023/08/14 02:04:09;;;;;;;4.13;1.10;;;;;;;17.41;66.24;99906.81;10479313;28;20550;-58
2023/08/14 02:09:11;;;;;;;1.90;1.08;;;;;;;17.54;66.27;99910.06;10478619;28;20044;-61
2023/08/14 02:14:13;;;;;;;1.75;1.30;;;;;;;17.61;66.16;99897.13;10478394;28;20056;-58
2023/08/14 02:19:15;;;;;;;3.42;1.85;;;;;;;17.49;66.00;99892.91;10494783;28;20097;-59
2023/08/14 02:24:17;;;;;;;2.90;1.20;;;;;;;17.34;66.63;99881.06;10460087;28;20048;-59
2023/08/14 02:29:19;;;;;;;2.20;1.25;;;;;;;17.37;66.47;99879.00;10478553;28;20056;-59
2023/08/14 02:34:55;;;;;;;1.77;1.20;;;;;;;17.29;66.70;99884.09;10477882;28;20144;-60
2023/08/14 02:39:58;;;;;;;2.35;1.00;;;;;;;17.24;66.26;99886.28;10463796;28;20476;-59
2023/08/14 02:45:00;;;;;;;3.08;1.27;;;;;;;17.25;66.45;99879.19;10475742;28;20048;-59
2023/08/14 02:50:05;;;;;;;1.63;1.10;;;;;;;17.27;66.73;99877.25;10475428;28;20480;-59
2023/08/14 02:55:07;;;;;;;1.73;0.93;;;;;;;17.33;66.47;99869.66;10458761;28;20080;-59
2023/08/14 03:00:09;;;;;;;3.17;1.50;;;;;;;17.34;66.32;99852.00;10492413;28;20090;-59
2023/08/14 03:05:12;;;;;;;3.17;1.25;;;;;;;17.32;66.71;99852.09;10476858;28;20046;-59
2023/08/14 03:10:14;;;;;;;1.52;1.10;;;;;;;17.43;66.53;99853.81;10477708;28;20064;-59
2023/08/14 03:15:17;;;;;;;3.05;1.23;;;;;;;17.53;66.22;99857.28;10476542;28;20428;-59
2023/08/14 03:20:19;;;;;;;2.70;1.30;;;;;;;17.53;65.84;99844.91;10492008;28;20098;-60
2023/08/14 03:25:22;;;;;;;4.18;1.60;;;;;;;17.53;66.16;99846.72;10457182;28;20063;-60
2023/08/14 03:30:24;;;;;;;1.75;1.00;;;;;;;17.55;66.21;99845.63;10476641;28;20086;-60
2023/08/14 03:35:28;;;;;;;2.30;1.33;;;;;;;17.61;66.06;99841.56;10457056;28;20046;-60
2023/08/14 03:40:30;;;;;;;2.33;1.23;;;;;;;17.64;65.75;99841.31;10458661;28;20048;-60
2023/08/14 03:45:33;;;;;;;1.75;1.08;;;;;;;17.66;65.70;99823.50;10457686;28;20049;-60
2023/08/14 03:50:35;;;;;;;4.25;1.20;;;;;;;17.61;65.83;99839.78;10475507;28;20044;-60
2023/08/14 03:55:37;;;;;;;4.38;2.08;;;;;;;17.55;65.50;99828.91;10456993;28;20056;-60
2023/08/14 04:00:39;;;;;;;1.45;1.05;;;;;;;17.59;65.98;99839.06;10473969;28;20090;-60
2023/08/14 04:05:42;;;;;;;1.88;1.17;;;;;;;17.65;65.83;99838.53;10475559;28;20660;-58
2023/08/14 04:10:44;;;;;;;3.92;1.40;;;;;;;17.63;65.81;99831.69;10475839;28;20125;-58
2023/08/14 04:15:46;;;;;;;1.48;1.10;;;;;;;17.38;66.07;99813.75;10456313;28;20053;-58
2023/08/14 04:20:48;;;;;;;8.77;2.08;;;;;;;17.30;66.17;99827.59;10490094;28;20580;-58
2023/08/14 04:25:51;;;;;;;1.45;0.98;;;;;;;17.28;66.25;99840.09;10490376;28;20076;-58
2023/08/14 04:30:55;;;;;;;4.05;1.05;;;;;;;17.41;66.13;99846.03;10457163;28;20688;-59
2023/08/14 04:35:57;;;;;;;4.00;1.20;;;;;;;17.46;66.09;99832.41;10490409;28;20048;-60
2023/08/14 04:40:59;;;;;;;3.33;1.15;;;;;;;17.53;65.80;99829.06;10473050;28;20041;-59
2023/08/14 04:46:10;;;;;;;2.08;1.30;;;;;;;17.77;65.79;99832.13;10472288;28;20052;-59
2023/08/14 04:51:12;;;;;;;4.20;1.63;;;;;;;17.99;65.53;99833.66;10490148;28;20420;-59
2023/08/14 04:56:14;;;;;;;1.98;1.20;;;;;;;18.15;65.05;99833.06;10474537;28;20130;-59
2023/08/14 05:01:17;;;;;;;3.58;1.40;;;;;;;18.21;64.91;99838.66;10457047;28;20060;-59
2023/08/14 05:06:20;;;;;;;2.17;1.20;;;;;;;18.33;64.77;99834.03;10458315;28;20048;-59
2023/08/14 05:11:22;;;;;;;1.88;1.23;;;;;;;18.30;64.67;99829.03;10481595;28;20060;-59
2023/08/14 05:16:24;;;;;;;2.47;1.33;;;;;;;18.37;64.72;99846.84;10481514;28;20052;-59
2023/08/14 05:21:27;;;;;;;2.30;1.25;;;;;;;18.51;64.75;99854.34;10462912;28;20052;-59
2023/08/14 05:26:29;;;;;;;5.50;1.20;;;;;;;18.69;64.43;99851.75;10462778;28;20296;-60
2023/08/14 05:31:31;;;;;;;1.55;1.20;;;;;;;19.07;63.63;99842.84;10481298;28;20591;-60
2023/08/14 05:36:33;;;;;;;3.72;1.48;;;;;;;19.24;63.05;99832.28;10480610;28;20171;-60
2023/08/14 05:41:35;;;;;;;3.75;1.30;;;;;;;19.46;62.96;99849.56;10480549;28;20086;-60
2023/08/14 05:46:38;;;;;;;7.93;1.60;;;;;;;19.63;62.43;99842.63;10480485;28;20044;-61
2023/08/14 05:51:40;;;;;;;2.10;1.30;;;;;;;20.13;61.52;99833.97;10480267;28;20051;-60
2023/08/14 05:56:43;;;;;;;3.25;1.10;;;;;;;20.42;61.14;99836.31;10461610;28;20065;-60
2023/08/14 06:01:45;;;;;;;4.93;1.50;;;;;;;20.84;60.55;99847.91;10479700;28;20048;-61
2023/08/14 06:06:47;;;;;;;4.05;1.50;;;;;;;21.26;59.39;99837.25;10479748;28;20047;-60
2023/08/14 06:11:49;;;;;;;2.70;1.38;;;;;;;20.89;59.64;99842.94;10478071;28;20045;-60
2023/08/14 06:16:51;;;;;;;2.13;1.50;;;;;;;20.85;59.39;99838.09;10478484;28;20543;-60
2023/08/14 06:21:54;;;;;;;2.55;1.45;;;;;;;20.68;59.85;99831.84;10478740;28;20059;-60
2023/08/14 06:26:56;;;;;;;2.42;1.50;;;;;;;21.02;59.01;99827.38;10460610;28;20425;-60
2023/08/14 06:31:58;;;;;;;3.08;1.20;;;;;;;21.19;58.56;99822.09;10478052;28;20581;-60
2023/08/14 06:37:00;;;;;;;2.22;1.02;;;;;;;20.80;59.22;99825.28;10479062;28;20172;-60
2023/08/14 06:42:02;;;;;;;1.95;1.20;;;;;;;20.79;59.00;99825.44;10460150;28;20040;-60
2023/08/14 06:47:06;;;;;;;3.00;1.35;;;;;;;21.27;58.41;99830.13;10443598;28;20051;-60
2023/08/14 06:52:08;;;;;;;2.58;1.45;;;;;;;21.97;57.06;99821.56;10477869;28;20048;-60
2023/08/14 06:57:10;;;;;;;3.58;1.30;;;;;;;22.15;56.24;99816.13;10476514;28;20509;-59
2023/08/14 07:02:12;;;;;;;3.67;2.00;;;;;;;21.72;56.94;99812.75;10476912;28;20059;-60
2023/08/14 07:07:16;;;;;;;2.63;1.10;;;;;;;21.61;57.19;99798.94;10476449;28;20044;-59
2023/08/14 07:12:18;;;;;;;5.28;1.58;;;;;;;21.45;57.61;99796.25;10477168;28;20552;-59
2023/08/14 07:17:21;;;;;;;3.05;1.35;;;;;;;21.32;58.06;99790.56;10476475;28;20048;-59
2023/08/14 07:22:23;;;;;;;2.40;1.50;;;;;;;20.99;58.29;99785.13;10476784;28;20052;-60
2023/08/14 07:27:25;;;;;;;4.82;1.77;;;;;;;20.94;58.11;99786.63;10476539;28;20394;-59
2023/08/14 07:32:27;;;;;;;2.30;1.38;;;;;;;21.01;58.23;99792.94;10475283;28;20047;-59
2023/08/14 07:37:29;;;;;;;2.05;1.20;;;;;;;21.18;57.64;99792.00;10469831;28;20452;-59
2023/08/14 07:42:31;;;;;;;3.45;1.20;;;;;;;22.05;56.70;99772.84;10474225;28;20040;-59
2023/08/14 07:47:34;;;;;;;5.93;1.75;;;;;;;22.86;55.01;99765.47;10452597;28;20068;-59
2023/08/14 07:52:36;;;;;;;3.08;1.40;;;;;;;23.30;54.25;99775.38;10473356;28;20464;-60
2023/08/14 07:57:38;;;;;;;5.63;1.50;;;;;;;23.77;53.12;99782.41;10470327;28;20335;-60
2023/08/14 08:02:40;;;;;;;3.95;1.63;;;;;;;24.85;51.61;99787.19;10471178;28;20066;-60
2023/08/14 08:07:42;;;;;;;7.07;1.70;;;;;;;25.47;49.69;99774.13;10473243;28;20396;-59
2023/08/14 08:12:44;;;;;;;4.97;1.48;;;;;;;25.65;49.02;99775.34;10469016;28;20080;-59
2023/08/14 08:17:46;;;;;;;7.68;1.85;;;;;;;26.04;48.47;99785.59;10474493;28;20056;-59
2023/08/14 08:22:48;;;;;;;2.10;1.27;;;;;;;26.47;46.95;99787.13;10473270;28;20404;-60
2023/08/14 08:27:50;;;;;;;1.95;1.30;;;;;;;26.42;44.44;99781.56;10456184;28;20040;-60
2023/08/14 08:32:52;;;;;;;4.72;1.50;;;;;;;26.48;46.75;99782.63;10474619;28;20062;-60
2023/08/14 08:38:04;;;;;;;3.45;1.20;;;;;;;26.75;46.47;99797.84;10475095;28;20048;-60
2023/08/14 08:43:06;;;;;;;2.88;1.25;;;;;;;26.21;47.01;99805.75;10479801;28;20385;-60
2023/08/14 08:48:08;;;;;;;4.30;1.70;;;;;;;25.92;46.78;99794.34;10482458;28;20489;-60
2023/08/14 08:53:10;;;;;;;3.42;1.20;;;;;;;25.72;46.87;99789.63;10464761;28;20056;-60
2023/08/14 08:58:16;;;;;;;1.90;1.17;;;;;;;25.33;47.84;99799.06;10482501;28;20052;-60
2023/08/14 09:03:18;;;;;;;4.93;1.08;;;;;;;25.04;47.82;99795.44;10482039;28;20086;-60
2023/08/14 09:08:20;;;;;;;3.72;1.70;;;;;;;25.06;47.72;99800.63;10480866;28;20072;-60
2023/08/14 09:13:22;;;;;;;9.13;2.33;;;;;;;24.79;47.97;99803.97;10481679;28;20313;-60
2023/08/14 09:18:33;;;;;;;2.53;1.35;;;;;;;24.58;48.84;99793.16;10463704;28;20083;-60
2023/08/14 09:23:37;;;;;;;3.20;1.42;;;;;;;24.23;49.83;99794.69;10462546;28;20053;-59
2023/08/14 09:28:39;;;;;;;2.75;1.30;;;;;;;24.55;49.60;99794.34;10481883;28;20078;-60
2023/08/14 09:33:43;;;;;;;2.50;1.42;;;;;;;24.57;49.80;99796.88;10480677;28;20511;-60
2023/08/14 09:38:45;;;;;;;1.23;0.75;;;;;;;24.43;49.94;99785.13;10480654;28;20052;-60
2023/08/14 09:43:47;;;;;;;3.38;1.13;;;;;;;24.22;50.70;99785.88;10445409;28;20163;-60
2023/08/14 09:48:49;;;;;;;1.80;1.05;;;;;;;24.18;50.39;99786.41;10480558;28;20044;-60
2023/08/14 09:53:58;;;;;;;2.28;1.10;;;;;;;23.98;50.86;99770.03;10479344;28;20056;-60
2023/08/14 09:59:00;;;;;;;2.72;1.17;;;;;;;24.05;52.07;99780.81;10462349;28;20059;-59
2023/08/14 10:04:04;;;;;;;1.25;0.95;;;;;;;24.46;51.13;99765.22;10479057;28;20040;-60
2023/08/14 10:09:06;;;;;;;2.40;1.30;;;;;;;25.07;50.42;99767.50;10479865;28;20048;-60
2023/08/14 10:14:12;;;;;;;2.70;1.23;;;;;;;25.37;48.86;99757.53;10461462;28;20044;-60
2023/08/14 10:19:20;;;;;;;2.72;1.20;;;;;;;26.07;48.24;99754.91;10479005;28;20408;-60
2023/08/14 10:24:23;;;;;;;2.83;1.20;;;;;;;27.20;46.20;99754.28;10478325;28;20063;-59
2023/08/14 10:29:26;;;;;;;2.72;1.10;;;;;;;27.68;44.39;99754.16;10460814;28;20059;-59
2023/08/14 10:34:30;;;;;;;2.78;1.20;;;;;;;27.60;43.73;99760.56;10478498;28;20052;-60
2023/08/14 10:39:34;;;;;;;3.13;1.17;;;;;;;27.33;43.98;99767.75;10478299;28;20052;-59
2023/08/14 10:44:37;;;;;;;2.33;1.30;;;;;;;27.10;44.08;99787.88;10477472;28;20514;-60
2023/08/14 10:50:11;;;;;;;2.42;1.27;;;;;;;27.06;43.36;99792.00;10475079;28;20048;-59
2023/08/14 10:55:22;;;;;;;3.20;1.58;;;;;;;27.54;44.29;99803.53;10493258;28;20059;-59
2023/08/14 11:00:25;;;;;;;2.90;1.38;;;;;;;27.90;44.07;99793.28;10477957;28;20561;-60
2023/08/14 11:05:37;;;;;;;2.13;1.20;;;;;;;28.24;43.07;99793.88;10477093;28;20040;-59
2023/08/14 11:10:42;;;;;;;3.17;1.20;;;;;;;28.22;43.53;99792.41;10476778;28;20032;-59
2023/08/14 11:15:44;;;;;;;4.28;1.50;;;;;;;28.37;43.52;99784.16;10476917;28;20105;-60
2023/08/14 11:20:46;;;;;;;2.67;1.08;;;;;;;28.56;43.29;99788.69;10476463;28;20105;-60
2023/08/14 11:25:48;;;;;;;3.53;1.08;;;;;;;28.43;43.31;99794.91;10476551;28;20060;-60
2023/08/14 11:30:51;;;;;;;1.65;1.10;;;;;;;28.54;43.40;99806.91;10491328;28;20045;-59
2023/08/14 11:35:54;;;;;;;2.97;1.30;;;;;;;28.42;43.51;99809.38;10475765;28;20045;-59
2023/08/14 11:40:56;;;;;;;3.95;1.23;;;;;;;28.08;44.05;99813.13;10458555;28;20029;-60
2023/08/14 11:45:58;;;;;;;3.05;1.55;;;;;;;28.13;44.46;99802.59;10476126;28;20070;-59
2023/08/14 11:51:00;;;;;;;2.75;1.10;;;;;;;28.15;44.55;99799.69;10476121;28;20047;-59
2023/08/14 11:56:02;;;;;;;2.72;1.10;;;;;;;27.58;45.21;99791.34;10475513;28;20057;-59
2023/08/14 12:01:04;;;;;;;2.00;1.20;;;;;;;27.74;45.70;99780.25;10475460;28;20106;-59
2023/08/14 12:06:06;;;;;;;3.00;1.27;;;;;;;27.92;45.65;99780.44;10475784;28;20044;-59
2023/08/14 12:11:08;;;;;;;3.80;1.40;;;;;;;27.76;46.02;99787.06;10475017;28;20040;-60
2023/08/14 12:16:10;;;;;;;4.25;1.25;;;;;;;27.85;46.08;99777.75;10477706;28;20048;-59
2023/08/14 12:21:27;;;;;;;4.80;2.20;;;;;;;27.81;46.00;99749.63;10483644;28;20731;-59
2023/08/14 12:26:36;;;;;;;1.80;1.00;;;;;;;27.49;46.53;99736.97;10483661;28;20032;-60
2023/08/14 12:31:38;;;;;;;5.43;1.45;;;;;;;27.72;47.42;99731.22;10483089;28;20036;-59
2023/08/14 12:36:40;;;;;;;2.35;1.30;;;;;;;28.05;47.17;99719.47;10483186;28;20055;-59
2023/08/14 12:41:42;;;;;;;3.28;1.48;;;;;;;28.16;46.61;99717.97;10482991;28;20037;-60
2023/08/14 12:46:44;;;;;;;2.92;1.15;;;;;;;28.25;46.98;99705.97;10483313;28;20063;-60
2023/08/14 12:51:46;;;;;;;2.83;1.30;;;;;;;28.52;46.92;99723.72;10498112;28;20499;-60
2023/08/14 12:56:48;;;;;;;1.33;1.10;;;;;;;28.66;45.69;99708.34;10481766;28;20059;-60
2023/08/14 13:01:50;;;;;;;4.35;1.75;;;;;;;28.43;46.06;99716.91;10481851;28;20680;-60
2023/08/14 13:06:58;;;;;;;1.90;1.10;;;;;;;28.32;46.11;99696.03;10481705;28;20484;-60
2023/08/14 13:12:01;;;;;;;3.60;1.20;;;;;;;28.22;46.70;99703.69;10482647;28;20345;-60
2023/08/14 13:17:03;;;;;;;2.20;1.30;;;;;;;28.08;46.38;99699.38;10481161;28;20137;-60
2023/08/14 13:22:05;;;;;;;2.55;1.50;;;;;;;28.10;46.15;99691.91;10481684;28;20055;-60
2023/08/14 13:27:07;;;;;;;7.68;2.03;;;;;;;28.15;45.85;99682.19;10463149;28;20052;-60
2023/08/14 13:32:10;;;;;;;2.13;1.33;;;;;;;28.52;45.59;99659.16;10462602;28;20511;-60
2023/08/14 13:37:12;;;;;;;4.03;1.60;;;;;;;28.56;44.73;99654.97;10480495;28;20467;-59
2023/08/14 13:42:14;;;;;;;1.58;1.27;;;;;;;28.49;44.46;99658.72;10444464;28;20062;-59
2023/08/14 13:47:16;;;;;;;2.40;1.20;;;;;;;28.33;44.49;99654.66;10445857;28;20417;-59
2023/08/14 13:52:19;;;;;;;4.65;1.25;;;;;;;28.45;43.92;99647.56;10480412;28;20530;-60
2023/08/14 13:57:21;;;;;;;1.88;1.00;;;;;;;28.59;43.69;99651.84;10479729;28;20040;-59
2023/08/14 14:02:23;;;;;;;2.13;1.10;;;;;;;28.62;43.89;99651.44;10480489;28;20045;-59
2023/08/14 14:07:25;;;;;;;4.85;1.70;;;;;;;28.77;43.56;99640.34;10479873;28;20048;-59
2023/08/14 14:12:34;;;;;;;2.45;1.10;;;;;;;28.63;44.05;99644.16;10479227;28;20072;-59
2023/08/14 14:17:40;;;;;;;3.38;1.48;;;;;;;28.21;45.45;99653.63;10460465;28;20052;-59
2023/08/14 14:22:42;;;;;;;2.60;1.27;;;;;;;27.95;45.59;99664.47;10460683;28;20051;-59
2023/08/14 14:27:44;;;;;;;2.13;1.20;;;;;;;27.89;46.19;99674.16;10479180;28;20702;-59
2023/08/14 14:32:46;;;;;;;9.75;1.95;;;;;;;27.94;45.94;99676.22;10478726;28;20775;-59
2023/08/14 14:37:48;;;;;;;2.90;1.25;;;;;;;28.05;45.93;99662.16;10478368;28;20071;-59
2023/08/14 14:42:51;;;;;;;2.33;1.30;;;;;;;28.25;45.17;99657.53;10477668;28;20044;-60
2023/08/14 14:47:53;;;;;;;1.95;1.15;;;;;;;28.56;44.52;99671.13;10478244;28;20723;-59
2023/08/14 14:52:55;;;;;;;1.33;1.02;;;;;;;28.86;44.25;99669.56;10477397;28;20049;-59
2023/08/14 14:57:57;;;;;;;2.25;1.30;;;;;;;28.76;43.80;99661.09;10458781;28;20147;-59
2023/08/14 15:02:59;;;;;;;3.47;1.50;;;;;;;28.67;44.48;99670.44;10492402;28;20459;-59
2023/08/14 15:08:01;;;;;;;5.47;1.50;;;;;;;28.51;44.66;99667.41;10477177;28;20497;-59
2023/08/14 15:13:03;;;;;;;3.80;1.60;;;;;;;28.51;44.97;99668.25;10442079;28;20427;-60
2023/08/14 15:18:07;;;;;;;2.05;1.25;;;;;;;28.21;45.13;99664.38;10476699;28;20044;-59
2023/08/14 15:23:09;;;;;;;2.55;1.20;;;;;;;27.88;45.26;99663.63;10475918;28;20592;-58
2023/08/14 15:28:11;;;;;;;3.63;1.10;;;;;;;27.92;45.03;99667.56;10476613;28;20047;-59
2023/08/14 15:33:13;;;;;;;2.17;1.25;;;;;;;27.92;45.34;99667.56;10457598;28;20495;-59
2023/08/14 15:38:15;;;;;;;2.03;1.20;;;;;;;27.95;44.61;99661.78;10476009;28;20059;-59
2023/08/14 15:43:17;;;;;;;1.83;1.10;;;;;;;27.79;44.62;99654.16;10475807;28;20144;-59
2023/08/14 15:48:19;;;;;;;1.83;1.20;;;;;;;27.89;44.69;99658.03;10476470;28;20419;-59
2023/08/14 15:53:21;;;;;;;1.45;1.13;;;;;;;28.45;43.94;99652.94;10474667;28;20036;-59
2023/08/14 15:58:23;;;;;;;3.45;1.13;;;;;;;28.80;43.36;99648.00;10475992;28;20056;-59
2023/08/14 16:03:25;;;;;;;3.58;1.67;;;;;;;29.13;42.67;99643.28;10475696;28;20084;-59
2023/08/14 16:08:27;;;;;;;6.13;1.25;;;;;;;29.40;42.30;99638.56;10476232;28;20532;-59
2023/08/14 16:13:29;;;;;;;4.68;1.70;;;;;;;29.72;42.15;99632.84;10475397;28;20044;-59
2023/08/14 16:18:31;;;;;;;3.00;1.30;;;;;;;29.50;41.80;99633.50;10457496;28;20054;-59
2023/08/14 16:23:33;;;;;;;2.80;1.30;;;;;;;29.07;42.47;99638.78;10475404;28;20084;-59
2023/08/14 16:28:35;;;;;;;1.85;1.10;;;;;;;29.02;42.27;99631.34;10456384;28;20048;-59
2023/08/14 16:33:37;;;;;;;2.20;1.30;;;;;;;28.89;42.52;99631.41;10474459;28;20424;-58
2023/08/14 16:38:39;;;;;;;3.25;1.13;;;;;;;28.71;42.62;99625.06;10474796;28;20052;-59
2023/08/14 16:43:41;;;;;;;2.35;1.40;;;;;;;28.55;42.82;99620.19;10474414;28;20059;-59
2023/08/14 16:48:43;;;;;;;2.17;1.50;;;;;;;28.42;42.93;99609.50;10475403;28;20435;-59
2023/08/14 16:53:45;;;;;;;1.52;1.10;;;;;;;28.19;43.58;99620.75;10474708;28;20056;-59
2023/08/14 16:58:47;;;;;;;2.47;1.13;;;;;;;28.06;43.52;99618.94;10474563;28;20694;-59
2023/08/14 17:03:49;;;;;;;1.95;1.23;;;;;;;28.13;43.60;99627.81;10490455;28;20106;-59
2023/08/14 17:08:51;;;;;;;1.92;1.15;;;;;;;27.95;43.76;99637.56;10476642;28;20158;-59
2023/08/14 17:13:53;;;;;;;2.55;1.30;;;;;;;27.83;43.80;99642.75;10477478;28;20049;-59
2023/08/14 17:18:55;;;;;;;3.15;1.50;;;;;;;27.59;44.34;99642.53;10471721;28;20171;-59
2023/08/14 17:23:57;;;;;;;7.10;1.50;;;;;;;27.58;44.29;99643.59;10459169;28;20148;-58
2023/08/14 17:28:59;;;;;;;1.83;1.17;;;;;;;27.63;44.80;99657.25;10477479;28;20044;-59
2023/08/14 17:34:01;;;;;;;3.85;1.20;;;;;;;27.38;44.90;99649.78;10463013;28;20048;-59
2023/08/14 17:39:04;;;;;;;2.15;1.20;;;;;;;27.25;45.24;99647.09;10461583;28;20300;-59
2023/08/14 17:44:06;;;;;;;1.98;1.30;;;;;;;27.21;45.62;99648.53;10478357;28;20048;-59
2023/08/14 17:49:08;;;;;;;3.22;1.27;;;;;;;27.09;46.10;99643.97;10480227;28;20127;-59
2023/08/14 17:54:10;;;;;;;5.80;1.80;;;;;;;26.93;46.35;99637.13;10480308;28;20541;-59
2023/08/14 17:59:12;;;;;;;2.38;1.40;;;;;;;26.71;46.99;99637.47;10480276;28;20052;-59
2023/08/14 18:04:14;;;;;;;3.58;1.42;;;;;;;26.48;47.62;99643.97;10480306;28;20053;-60
2023/08/14 18:09:16;;;;;;;1.33;1.10;;;;;;;26.25;47.93;99656.88;10479631;28;20516;-59
2023/08/14 18:14:18;;;;;;;2.20;1.20;;;;;;;26.10;48.54;99652.66;10493462;28;20048;-60
2023/08/14 18:19:20;;;;;;;3.13;1.33;;;;;;;25.83;49.06;99647.09;10479553;28;20056;-59
2023/08/14 18:24:25;;;;;;;2.92;1.33;;;;;;;25.67;49.50;99650.06;10493116;28;20056;-59
2023/08/14 18:29:27;;;;;;;2.33;1.45;;;;;;;25.49;49.76;99655.09;10478684;28;20052;-59
2023/08/14 18:34:29;;;;;;;3.53;1.60;;;;;;;25.26;50.28;99642.94;10478758;28;20048;-59
2023/08/14 18:39:32;;;;;;;3.30;1.30;;;;;;;25.04;50.91;99656.31;10460434;28;20247;-59
2023/08/14 18:44:34;;;;;;;4.22;1.90;;;;;;;24.73;51.59;99665.66;10477993;28;20504;-59
2023/08/14 18:49:36;;;;;;;5.25;1.80;;;;;;;24.51;52.31;99672.75;10477645;28;20036;-59
2023/08/14 18:54:38;;;;;;;3.50;1.63;;;;;;;24.32;52.94;99670.66;10477096;28;20501;-59
2023/08/14 18:59:46;;;;;;;4.75;2.00;;;;;;;24.06;54.19;99665.75;10477571;28;20808;-59
2023/08/14 19:04:49;;;;;;;3.42;1.92;;;;;;;23.89;54.16;99666.94;10459232;28;20044;-59
2023/08/14 19:09:51;;;;;;;6.40;2.60;;;;;;;23.59;54.96;99678.59;10477388;28;20094;-58
2023/08/14 19:14:53;;;;;;;10.13;3.85;;;;;;;23.37;55.34;99690.13;10476982;28;20052;-59
2023/08/14 19:19:55;;;;;;;4.32;2.47;;;;;;;23.19;55.80;99697.56;10476487;28;20492;-59
2023/08/14 19:25:05;;;;;;;3.30;1.70;;;;;;;22.77;56.65;99690.00;10476196;28;20136;-59
2023/08/14 19:30:07;;;;;;;2.55;1.42;;;;;;;22.68;56.98;99694.50;10457971;28;20068;-58
2023/08/14 19:35:09;;;;;;;4.05;2.28;;;;;;;22.62;57.24;99705.88;10457649;28;20719;-59
2023/08/14 19:40:11;;;;;;;5.88;2.25;;;;;;;22.56;57.63;99711.91;10476601;28;20056;-59
2023/08/14 19:45:13;;;;;;;4.07;1.70;;;;;;;22.56;57.99;99711.91;10475888;28;20045;-58
2023/08/14 19:50:15;;;;;;;6.43;1.90;;;;;;;22.46;58.26;99719.28;10458031;28;20183;-58
2023/08/14 19:55:17;;;;;;;2.08;1.52;;;;;;;22.39;58.76;99720.97;10457908;28;21084;-59
2023/08/14 20:00:20;;;;;;;3.55;1.80;;;;;;;22.29;58.97;99720.31;10457323;28;20052;-58
2023/08/14 20:05:23;;;;;;;8.48;1.85;;;;;;;22.15;59.54;99730.88;10456824;28;20052;-58
2023/08/14 20:10:25;;;;;;;2.00;1.40;;;;;;;22.07;59.87;99723.72;10457116;28;21039;-59
2023/08/14 20:15:27;;;;;;;2.65;1.30;;;;;;;22.00;60.07;99728.03;10475586;28;20045;-59
2023/08/14 20:20:29;;;;;;;3.72;1.58;;;;;;;21.97;60.16;99744.34;10475504;28;20134;-60
2023/08/14 20:25:31;;;;;;;3.30;1.48;;;;;;;21.93;60.54;99745.69;10475211;28;20506;-59
2023/08/14 20:30:41;;;;;;;3.17;1.40;;;;;;;21.76;61.45;99739.53;10475486;28;20046;-58
2023/08/14 20:35:45;;;;;;;4.65;1.65;;;;;;;21.71;60.89;99725.06;10474629;28;20047;-58
2023/08/14 20:40:51;;;;;;;3.17;1.60;;;;;;;21.56;61.35;99732.06;10482770;28;20044;-60
2023/08/14 20:45:53;;;;;;;3.70;1.70;;;;;;;21.53;61.47;99727.09;10448342;28;20142;-60
2023/08/14 20:50:55;;;;;;;3.75;1.77;;;;;;;21.42;61.75;99738.88;10464138;28;20113;-58
2023/08/14 20:55:57;;;;;;;2.75;1.70;;;;;;;21.25;62.01;99753.16;10481842;28;20121;-58
2023/08/14 21:01:00;;;;;;;2.13;1.33;;;;;;;21.25;62.17;99749.66;10482637;28;20048;-58
2023/08/14 21:06:03;;;;;;;6.15;1.70;;;;;;;21.21;62.37;99749.16;10481761;28;20477;-58
2023/08/14 21:11:05;;;;;;;5.20;1.65;;;;;;;21.21;62.34;99751.81;10482201;28;20040;-60
2023/08/14 21:16:07;;;;;;;3.65;1.60;;;;;;;21.13;62.65;99750.94;10481758;28;20146;-60
2023/08/14 21:21:09;;;;;;;3.83;1.40;;;;;;;21.07;62.66;99753.25;10481367;28;20102;-60
2023/08/14 21:26:11;;;;;;;2.53;1.45;;;;;;;21.01;63.16;99737.13;10463358;28;20044;-60
2023/08/14 21:31:13;;;;;;;6.00;1.77;;;;;;;20.98;63.06;99742.78;10481133;28;20048;-60
2023/08/14 21:36:15;;;;;;;2.85;1.50;;;;;;;21.05;63.26;99749.94;10481249;28;20056;-58
2023/08/14 21:41:17;;;;;;;9.73;1.70;;;;;;;21.17;62.97;99749.63;10462607;28;20119;-58
2023/08/14 21:46:19;;;;;;;3.75;1.40;;;;;;;21.10;62.92;99754.75;10480196;28;20049;-58
2023/08/14 21:51:22;;;;;;;3.80;2.00;;;;;;;21.00;63.20;99770.03;10479114;28;20082;-58
2023/08/14 21:56:24;;;;;;;3.35;1.48;;;;;;;20.96;63.40;99771.34;10479975;28;20129;-59
2023/08/14 22:01:26;;;;;;;2.67;1.55;;;;;;;20.85;63.71;99772.47;10480266;28;20080;-58
2023/08/14 22:06:28;;;;;;;2.28;1.30;;;;;;;20.85;63.56;99771.63;10461643;28;20055;-58
2023/08/14 22:11:33;;;;;;;4.38;1.92;;;;;;;20.78;64.01;99762.66;10479403;28;20062;-58
2023/08/14 22:16:35;;;;;;;3.78;1.95;;;;;;;20.77;63.77;99760.97;10477897;28;20412;-58
2023/08/14 22:21:37;;;;;;;3.85;1.85;;;;;;;20.76;63.93;99765.47;10460847;28;20056;-58
2023/08/14 22:26:40;;;;;;;6.10;1.73;;;;;;;20.77;63.79;99771.59;10479220;28;20052;-59
2023/08/14 22:31:42;;;;;;;2.25;1.45;;;;;;;20.73;63.96;99772.91;10478830;28;20045;-58
2023/08/14 22:36:44;;;;;;;3.17;1.70;;;;;;;20.65;64.02;99778.19;10493385;28;20052;-58
2023/08/14 22:41:46;;;;;;;3.25;1.48;;;;;;;20.53;64.24;99774.97;10478210;28;20141;-58
2023/08/14 22:46:48;;;;;;;3.17;1.63;;;;;;;20.42;64.54;99779.72;10460300;28;20521;-58
2023/08/14 22:51:49;;;;;;;6.20;1.77;;;;;;;20.43;64.89;99765.44;10477861;28;20039;-58
2023/08/14 22:56:51;;;;;;;6.63;2.15;;;;;;;20.31;65.09;99766.69;10477560;28;20125;-59
2023/08/14 23:01:53;;;;;;;3.92;1.80;;;;;;;20.19;65.06;99761.63;10477186;28;20400;-58
2023/08/14 23:06:55;;;;;;;3.60;1.58;;;;;;;20.10;65.19;99762.59;10477873;28;20128;-58
2023/08/14 23:11:57;;;;;;;2.33;1.30;;;;;;;20.16;65.22;99764.63;10477146;28;20059;-58
2023/08/14 23:16:59;;;;;;;6.97;1.60;;;;;;;20.18;65.02;99762.66;10477217;28;20055;-58
2023/08/14 23:22:01;;;;;;;4.32;2.10;;;;;;;20.06;65.46;99766.56;10475385;28;20492;-58
2023/08/14 23:27:03;;;;;;;2.83;1.83;;;;;;;20.07;65.32;99751.47;10477533;28;20340;-58